sensor_id;sensor_type;location;lat;lon;timestamp;P1;durP1;ratioP1;P2;durP2;ratioP2
13289;SDS011;6713;50.954;5.310;2024-01-06T00:02:06;11.40;;;6.37;;
13289;SDS011;6713;50.954;5.310;2024-01-06T00:04:32;7.00;;;5.80;;
13289;SDS011;6713;50.954;5.310;2024-01-06T00:07:00;8.83;;;5.50;;
13289;SDS011;6713;50.954;5.310;2024-01-06T00:09:26;8.97;;;6.23;;
13289;SDS011;6713;50.954;5.310;2024-01-06T00:11:53;11.40;;;5.17;;
13289;SDS011;6713;50.954;5.310;2024-01-06T00:14:19;10.63;;;5.83;;
13289;SDS011;6713;50.954;5.310;2024-01-06T00:16:45;9.87;;;5.77;;
13289;SDS011;6713;50.954;5.310;2024-01-06T00:19:12;7.67;;;6.37;;
13289;SDS011;6713;50.954;5.310;2024-01-06T00:21:38;11.90;;;6.37;;
13289;SDS011;6713;50.954;5.310;2024-01-06T00:24:06;11.30;;;6.43;;
13289;SDS011;6713;50.954;5.310;2024-01-06T00:26:33;7.67;;;5.80;;
13289;SDS011;6713;50.954;5.310;2024-01-06T00:28:59;10.97;;;5.97;;
13289;SDS011;6713;50.954;5.310;2024-01-06T00:31:25;8.33;;;5.40;;
13289;SDS011;6713;50.954;5.310;2024-01-06T00:33:52;8.03;;;5.70;;
13289;SDS011;6713;50.954;5.310;2024-01-06T00:36:18;7.90;;;5.50;;
13289;SDS011;6713;50.954;5.310;2024-01-06T00:38:45;8.27;;;5.27;;
13289;SDS011;6713;50.954;5.310;2024-01-06T00:41:13;9.83;;;5.50;;
13289;SDS011;6713;50.954;5.310;2024-01-06T00:43:39;5.67;;;5.17;;
13289;SDS011;6713;50.954;5.310;2024-01-06T00:46:05;8.13;;;6.17;;
13289;SDS011;6713;50.954;5.310;2024-01-06T00:48:32;6.87;;;5.87;;
13289;SDS011;6713;50.954;5.310;2024-01-06T00:50:59;9.60;;;5.40;;
13289;SDS011;6713;50.954;5.310;2024-01-06T00:53:25;10.80;;;6.27;;
13289;SDS011;6713;50.954;5.310;2024-01-06T00:55:52;8.87;;;5.20;;
13289;SDS011;6713;50.954;5.310;2024-01-06T00:58:19;11.70;;;6.13;;
13289;SDS011;6713;50.954;5.310;2024-01-06T01:00:46;9.63;;;6.17;;
13289;SDS011;6713;50.954;5.310;2024-01-06T01:03:12;12.77;;;6.07;;
13289;SDS011;6713;50.954;5.310;2024-01-06T01:05:39;9.93;;;5.90;;
13289;SDS011;6713;50.954;5.310;2024-01-06T01:08:05;11.03;;;6.10;;
13289;SDS011;6713;50.954;5.310;2024-01-06T01:10:32;10.37;;;6.87;;
13289;SDS011;6713;50.954;5.310;2024-01-06T01:12:58;11.87;;;7.13;;
13289;SDS011;6713;50.954;5.310;2024-01-06T01:15:26;8.43;;;5.80;;
13289;SDS011;6713;50.954;5.310;2024-01-06T01:17:52;11.27;;;6.83;;
13289;SDS011;6713;50.954;5.310;2024-01-06T01:20:19;9.27;;;5.90;;
13289;SDS011;6713;50.954;5.310;2024-01-06T01:22:45;8.57;;;5.63;;
13289;SDS011;6713;50.954;5.310;2024-01-06T01:25:11;8.73;;;6.03;;
13289;SDS011;6713;50.954;5.310;2024-01-06T01:27:38;10.50;;;5.97;;
13289;SDS011;6713;50.954;5.310;2024-01-06T01:30:05;9.70;;;5.40;;
13289;SDS011;6713;50.954;5.310;2024-01-06T01:32:33;7.67;;;6.67;;
13289;SDS011;6713;50.954;5.310;2024-01-06T01:34:59;8.30;;;5.83;;
13289;SDS011;6713;50.954;5.310;2024-01-06T01:37:26;8.63;;;5.87;;
13289;SDS011;6713;50.954;5.310;2024-01-06T01:39:52;11.87;;;6.43;;
13289;SDS011;6713;50.954;5.310;2024-01-06T01:42:19;10.50;;;6.13;;
13289;SDS011;6713;50.954;5.310;2024-01-06T01:44:45;6.60;;;5.30;;
13289;SDS011;6713;50.954;5.310;2024-01-06T01:47:11;6.23;;;5.63;;
13289;SDS011;6713;50.954;5.310;2024-01-06T01:49:41;8.80;;;5.37;;
13289;SDS011;6713;50.954;5.310;2024-01-06T01:52:07;7.10;;;5.30;;
13289;SDS011;6713;50.954;5.310;2024-01-06T01:54:34;7.83;;;5.13;;
13289;SDS011;6713;50.954;5.310;2024-01-06T01:57:00;7.43;;;4.90;;
13289;SDS011;6713;50.954;5.310;2024-01-06T01:59:27;8.60;;;5.00;;
13289;SDS011;6713;50.954;5.310;2024-01-06T02:01:54;5.67;;;4.47;;
13289;SDS011;6713;50.954;5.310;2024-01-06T02:04:21;6.73;;;4.47;;
13289;SDS011;6713;50.954;5.310;2024-01-06T02:06:49;4.43;;;4.03;;
13289;SDS011;6713;50.954;5.310;2024-01-06T02:09:16;6.50;;;4.20;;
13289;SDS011;6713;50.954;5.310;2024-01-06T02:11:42;5.97;;;4.13;;
13289;SDS011;6713;50.954;5.310;2024-01-06T02:14:09;8.10;;;4.60;;
13289;SDS011;6713;50.954;5.310;2024-01-06T02:16:35;5.57;;;4.23;;
13289;SDS011;6713;50.954;5.310;2024-01-06T02:19:02;6.20;;;3.67;;
13289;SDS011;6713;50.954;5.310;2024-01-06T02:21:28;7.00;;;4.23;;
13289;SDS011;6713;50.954;5.310;2024-01-06T02:23:59;6.30;;;4.90;;
13289;SDS011;6713;50.954;5.310;2024-01-06T02:26:25;5.03;;;4.47;;
13289;SDS011;6713;50.954;5.310;2024-01-06T02:28:51;5.10;;;4.40;;
13289;SDS011;6713;50.954;5.310;2024-01-06T02:31:18;7.90;;;5.20;;
13289;SDS011;6713;50.954;5.310;2024-01-06T02:33:44;7.17;;;5.53;;
13289;SDS011;6713;50.954;5.310;2024-01-06T02:36:11;8.93;;;5.40;;
13289;SDS011;6713;50.954;5.310;2024-01-06T02:38:37;9.77;;;6.57;;
13289;SDS011;6713;50.954;5.310;2024-01-06T02:41:05;5.67;;;4.17;;
13289;SDS011;6713;50.954;5.310;2024-01-06T02:43:31;4.93;;;4.53;;
13289;SDS011;6713;50.954;5.310;2024-01-06T02:45:58;7.20;;;4.63;;
13289;SDS011;6713;50.954;5.310;2024-01-06T02:48:24;5.23;;;4.47;;
13289;SDS011;6713;50.954;5.310;2024-01-06T02:50:50;7.73;;;5.50;;
13289;SDS011;6713;50.954;5.310;2024-01-06T02:53:17;7.50;;;5.60;;
13289;SDS011;6713;50.954;5.310;2024-01-06T02:55:43;7.07;;;4.83;;
13289;SDS011;6713;50.954;5.310;2024-01-06T02:58:11;8.03;;;5.20;;
13289;SDS011;6713;50.954;5.310;2024-01-06T03:00:37;7.70;;;4.97;;
13289;SDS011;6713;50.954;5.310;2024-01-06T03:03:04;10.53;;;5.50;;
13289;SDS011;6713;50.954;5.310;2024-01-06T03:05:30;9.00;;;5.90;;
13289;SDS011;6713;50.954;5.310;2024-01-06T03:07:57;7.53;;;5.37;;
13289;SDS011;6713;50.954;5.310;2024-01-06T03:10:23;11.27;;;5.67;;
13289;SDS011;6713;50.954;5.310;2024-01-06T03:12:50;8.03;;;5.73;;
13289;SDS011;6713;50.954;5.310;2024-01-06T03:15:18;8.03;;;6.60;;
13289;SDS011;6713;50.954;5.310;2024-01-06T03:17:44;11.00;;;7.07;;
13289;SDS011;6713;50.954;5.310;2024-01-06T03:20:11;10.60;;;7.77;;
13289;SDS011;6713;50.954;5.310;2024-01-06T03:22:37;9.73;;;7.20;;
13289;SDS011;6713;50.954;5.310;2024-01-06T03:25:04;10.30;;;7.03;;
13289;SDS011;6713;50.954;5.310;2024-01-06T03:27:31;9.03;;;6.80;;
13289;SDS011;6713;50.954;5.310;2024-01-06T03:29:57;11.90;;;7.77;;
13289;SDS011;6713;50.954;5.310;2024-01-06T03:32:25;11.13;;;7.33;;
13289;SDS011;6713;50.954;5.310;2024-01-06T03:34:53;12.37;;;8.43;;
13289;SDS011;6713;50.954;5.310;2024-01-06T03:37:20;12.37;;;8.70;;
13289;SDS011;6713;50.954;5.310;2024-01-06T03:39:47;10.77;;;6.97;;
13289;SDS011;6713;50.954;5.310;2024-01-06T03:42:13;12.57;;;8.53;;
13289;SDS011;6713;50.954;5.310;2024-01-06T03:44:40;10.33;;;7.13;;
13289;SDS011;6713;50.954;5.310;2024-01-06T03:47:06;11.67;;;8.03;;
13289;SDS011;6713;50.954;5.310;2024-01-06T03:49:34;11.57;;;7.70;;
13289;SDS011;6713;50.954;5.310;2024-01-06T03:52:00;11.27;;;8.67;;
13289;SDS011;6713;50.954;5.310;2024-01-06T03:54:27;13.23;;;8.97;;
13289;SDS011;6713;50.954;5.310;2024-01-06T03:56:54;11.93;;;7.83;;
13289;SDS011;6713;50.954;5.310;2024-01-06T03:59:20;11.03;;;7.90;;
13289;SDS011;6713;50.954;5.310;2024-01-06T04:01:47;10.57;;;7.70;;
13289;SDS011;6713;50.954;5.310;2024-01-06T04:04:13;11.33;;;8.30;;
13289;SDS011;6713;50.954;5.310;2024-01-06T04:06:41;13.23;;;8.67;;
13289;SDS011;6713;50.954;5.310;2024-01-06T04:09:07;14.50;;;8.70;;
13289;SDS011;6713;50.954;5.310;2024-01-06T04:11:34;14.17;;;8.90;;
13289;SDS011;6713;50.954;5.310;2024-01-06T04:14:00;12.03;;;7.93;;
13289;SDS011;6713;50.954;5.310;2024-01-06T04:16:27;12.63;;;9.23;;
13289;SDS011;6713;50.954;5.310;2024-01-06T04:18:53;13.03;;;9.03;;
13289;SDS011;6713;50.954;5.310;2024-01-06T04:21:20;13.07;;;9.47;;
13289;SDS011;6713;50.954;5.310;2024-01-06T04:23:48;14.40;;;10.33;;
13289;SDS011;6713;50.954;5.310;2024-01-06T04:26:15;13.30;;;9.63;;
13289;SDS011;6713;50.954;5.310;2024-01-06T04:28:41;13.00;;;9.43;;
13289;SDS011;6713;50.954;5.310;2024-01-06T04:31:08;11.30;;;8.93;;
13289;SDS011;6713;50.954;5.310;2024-01-06T04:33:34;14.73;;;9.87;;
13289;SDS011;6713;50.954;5.310;2024-01-06T04:36:02;12.30;;;8.57;;
13289;SDS011;6713;50.954;5.310;2024-01-06T04:38:28;14.23;;;9.97;;
13289;SDS011;6713;50.954;5.310;2024-01-06T04:40:56;13.50;;;9.23;;
13289;SDS011;6713;50.954;5.310;2024-01-06T04:43:22;15.47;;;9.70;;
13289;SDS011;6713;50.954;5.310;2024-01-06T04:45:49;12.57;;;9.20;;
13289;SDS011;6713;50.954;5.310;2024-01-06T04:48:16;13.30;;;9.80;;
13289;SDS011;6713;50.954;5.310;2024-01-06T04:50:42;10.53;;;8.27;;
13289;SDS011;6713;50.954;5.310;2024-01-06T04:53:08;11.60;;;8.50;;
13289;SDS011;6713;50.954;5.310;2024-01-06T04:55:35;11.93;;;7.53;;
13289;SDS011;6713;50.954;5.310;2024-01-06T04:58:03;9.10;;;6.40;;
13289;SDS011;6713;50.954;5.310;2024-01-06T05:00:29;9.40;;;6.37;;
13289;SDS011;6713;50.954;5.310;2024-01-06T05:02:55;8.10;;;6.80;;
13289;SDS011;6713;50.954;5.310;2024-01-06T05:05:22;8.47;;;6.97;;
13289;SDS011;6713;50.954;5.310;2024-01-06T05:07:48;9.03;;;7.40;;
13289;SDS011;6713;50.954;5.310;2024-01-06T05:10:15;7.33;;;6.60;;
13289;SDS011;6713;50.954;5.310;2024-01-06T05:12:41;8.60;;;7.47;;
13289;SDS011;6713;50.954;5.310;2024-01-06T05:15:09;11.10;;;7.97;;
13289;SDS011;6713;50.954;5.310;2024-01-06T05:17:35;9.67;;;7.93;;
13289;SDS011;6713;50.954;5.310;2024-01-06T05:20:02;9.90;;;7.67;;
13289;SDS011;6713;50.954;5.310;2024-01-06T05:22:28;8.60;;;7.10;;
13289;SDS011;6713;50.954;5.310;2024-01-06T05:24:55;7.17;;;6.47;;
13289;SDS011;6713;50.954;5.310;2024-01-06T05:27:21;9.37;;;6.90;;
13289;SDS011;6713;50.954;5.310;2024-01-06T05:29:48;7.67;;;6.97;;
13289;SDS011;6713;50.954;5.310;2024-01-06T05:32:16;7.77;;;6.30;;
13289;SDS011;6713;50.954;5.310;2024-01-06T05:34:43;10.30;;;7.97;;
13289;SDS011;6713;50.954;5.310;2024-01-06T05:37:10;9.13;;;7.40;;
13289;SDS011;6713;50.954;5.310;2024-01-06T05:39:37;10.17;;;8.40;;
13289;SDS011;6713;50.954;5.310;2024-01-06T05:42:03;9.53;;;8.37;;
13289;SDS011;6713;50.954;5.310;2024-01-06T05:44:30;8.67;;;7.73;;
13289;SDS011;6713;50.954;5.310;2024-01-06T05:46:56;9.50;;;7.47;;
13289;SDS011;6713;50.954;5.310;2024-01-06T05:49:24;8.20;;;7.03;;
13289;SDS011;6713;50.954;5.310;2024-01-06T05:51:50;9.23;;;7.33;;
13289;SDS011;6713;50.954;5.310;2024-01-06T05:54:16;8.80;;;7.20;;
13289;SDS011;6713;50.954;5.310;2024-01-06T05:56:43;8.03;;;6.63;;
13289;SDS011;6713;50.954;5.310;2024-01-06T05:59:09;8.63;;;7.50;;
13289;SDS011;6713;50.954;5.310;2024-01-06T06:01:36;8.90;;;7.00;;
13289;SDS011;6713;50.954;5.310;2024-01-06T06:04:02;8.47;;;6.80;;
13289;SDS011;6713;50.954;5.310;2024-01-06T06:06:30;6.80;;;6.10;;
13289;SDS011;6713;50.954;5.310;2024-01-06T06:08:58;7.53;;;6.10;;
13289;SDS011;6713;50.954;5.310;2024-01-06T06:11:24;7.50;;;6.70;;
13289;SDS011;6713;50.954;5.310;2024-01-06T06:13:50;8.67;;;6.73;;
13289;SDS011;6713;50.954;5.310;2024-01-06T06:16:17;9.93;;;7.07;;
13289;SDS011;6713;50.954;5.310;2024-01-06T06:18:43;7.17;;;5.90;;
13289;SDS011;6713;50.954;5.310;2024-01-06T06:21:10;7.67;;;6.30;;
13289;SDS011;6713;50.954;5.310;2024-01-06T06:23:38;9.17;;;6.00;;
13289;SDS011;6713;50.954;5.310;2024-01-06T06:26:04;8.50;;;6.50;;
13289;SDS011;6713;50.954;5.310;2024-01-06T06:28:31;9.50;;;7.27;;
13289;SDS011;6713;50.954;5.310;2024-01-06T06:30:58;9.07;;;6.73;;
13289;SDS011;6713;50.954;5.310;2024-01-06T06:33:24;8.47;;;6.93;;
13289;SDS011;6713;50.954;5.310;2024-01-06T06:35:50;7.43;;;6.60;;
13289;SDS011;6713;50.954;5.310;2024-01-06T06:38:17;7.33;;;6.50;;
13289;SDS011;6713;50.954;5.310;2024-01-06T06:40:45;8.80;;;6.27;;
13289;SDS011;6713;50.954;5.310;2024-01-06T06:43:12;8.03;;;6.13;;
13289;SDS011;6713;50.954;5.310;2024-01-06T06:45:38;8.10;;;6.67;;
13289;SDS011;6713;50.954;5.310;2024-01-06T06:48:05;8.03;;;6.70;;
13289;SDS011;6713;50.954;5.310;2024-01-06T06:50:31;9.93;;;6.53;;
13289;SDS011;6713;50.954;5.310;2024-01-06T06:52:58;8.00;;;6.43;;
13289;SDS011;6713;50.954;5.310;2024-01-06T06:55:26;10.00;;;7.17;;
13289;SDS011;6713;50.954;5.310;2024-01-06T06:57:53;8.50;;;6.73;;
13289;SDS011;6713;50.954;5.310;2024-01-06T07:00:20;7.73;;;5.87;;
13289;SDS011;6713;50.954;5.310;2024-01-06T07:02:46;7.70;;;6.17;;
13289;SDS011;6713;50.954;5.310;2024-01-06T07:05:13;9.73;;;7.00;;
13289;SDS011;6713;50.954;5.310;2024-01-06T07:07:39;10.77;;;7.60;;
13289;SDS011;6713;50.954;5.310;2024-01-06T07:10:06;8.57;;;6.40;;
13289;SDS011;6713;50.954;5.310;2024-01-06T07:12:33;9.87;;;8.00;;
13289;SDS011;6713;50.954;5.310;2024-01-06T07:15:00;8.43;;;6.20;;
13289;SDS011;6713;50.954;5.310;2024-01-06T07:17:27;9.20;;;7.53;;
13289;SDS011;6713;50.954;5.310;2024-01-06T07:19:54;9.17;;;6.60;;
13289;SDS011;6713;50.954;5.310;2024-01-06T07:22:20;8.93;;;7.03;;
13289;SDS011;6713;50.954;5.310;2024-01-06T07:24:47;8.40;;;6.43;;
13289;SDS011;6713;50.954;5.310;2024-01-06T07:27:13;10.47;;;7.37;;
13289;SDS011;6713;50.954;5.310;2024-01-06T07:29:40;11.13;;;6.63;;
13289;SDS011;6713;50.954;5.310;2024-01-06T07:32:08;11.07;;;7.60;;
13289;SDS011;6713;50.954;5.310;2024-01-06T07:34:34;9.90;;;7.07;;
13289;SDS011;6713;50.954;5.310;2024-01-06T07:37:00;11.83;;;8.57;;
13289;SDS011;6713;50.954;5.310;2024-01-06T07:39:27;9.90;;;7.20;;
13289;SDS011;6713;50.954;5.310;2024-01-06T07:41:53;10.70;;;6.47;;
13289;SDS011;6713;50.954;5.310;2024-01-06T07:44:20;10.43;;;7.60;;
13289;SDS011;6713;50.954;5.310;2024-01-06T07:46:49;9.50;;;6.93;;
13289;SDS011;6713;50.954;5.310;2024-01-06T07:49:17;9.03;;;6.93;;
13289;SDS011;6713;50.954;5.310;2024-01-06T07:51:44;11.40;;;7.27;;
13289;SDS011;6713;50.954;5.310;2024-01-06T07:54:10;13.53;;;7.30;;
13289;SDS011;6713;50.954;5.310;2024-01-06T07:56:37;10.37;;;7.50;;
13289;SDS011;6713;50.954;5.310;2024-01-06T07:59:04;10.57;;;7.80;;
13289;SDS011;6713;50.954;5.310;2024-01-06T08:01:30;7.40;;;6.33;;
13289;SDS011;6713;50.954;5.310;2024-01-06T08:03:57;9.17;;;7.17;;
13289;SDS011;6713;50.954;5.310;2024-01-06T08:06:25;9.37;;;6.70;;
13289;SDS011;6713;50.954;5.310;2024-01-06T08:08:51;10.50;;;7.10;;
13289;SDS011;6713;50.954;5.310;2024-01-06T08:11:17;11.00;;;6.73;;
13289;SDS011;6713;50.954;5.310;2024-01-06T08:13:44;12.55;;;9.35;;
13289;SDS011;6713;50.954;5.310;2024-01-06T08:16:11;11.30;;;7.10;;
13289;SDS011;6713;50.954;5.310;2024-01-06T08:18:37;9.27;;;7.13;;
13289;SDS011;6713;50.954;5.310;2024-01-06T08:21:04;12.60;;;7.17;;
13289;SDS011;6713;50.954;5.310;2024-01-06T08:23:31;10.00;;;7.03;;
13289;SDS011;6713;50.954;5.310;2024-01-06T08:25:58;7.50;;;6.20;;
13289;SDS011;6713;50.954;5.310;2024-01-06T08:28:24;8.50;;;6.80;;
13289;SDS011;6713;50.954;5.310;2024-01-06T08:30:51;8.93;;;6.47;;
13289;SDS011;6713;50.954;5.310;2024-01-06T08:33:17;10.70;;;6.47;;
13289;SDS011;6713;50.954;5.310;2024-01-06T08:38:48;6.90;;;6.07;;
13289;SDS011;6713;50.954;5.310;2024-01-06T08:41:14;7.97;;;6.00;;
13289;SDS011;6713;50.954;5.310;2024-01-06T08:43:41;7.27;;;6.10;;
13289;SDS011;6713;50.954;5.310;2024-01-06T08:46:07;8.00;;;6.07;;
13289;SDS011;6713;50.954;5.310;2024-01-06T08:48:34;8.80;;;6.87;;
13289;SDS011;6713;50.954;5.310;2024-01-06T08:51:00;10.57;;;6.80;;
13289;SDS011;6713;50.954;5.310;2024-01-06T08:53:26;7.03;;;6.00;;
13289;SDS011;6713;50.954;5.310;2024-01-06T08:55:54;7.97;;;6.40;;
13289;SDS011;6713;50.954;5.310;2024-01-06T08:58:21;7.57;;;5.93;;
13289;SDS011;6713;50.954;5.310;2024-01-06T09:00:47;8.07;;;6.00;;
13289;SDS011;6713;50.954;5.310;2024-01-06T09:03:13;7.27;;;6.23;;
13289;SDS011;6713;50.954;5.310;2024-01-06T09:05:40;8.53;;;6.33;;
13289;SDS011;6713;50.954;5.310;2024-01-06T09:08:06;8.90;;;6.13;;
13289;SDS011;6713;50.954;5.310;2024-01-06T09:10:32;7.43;;;6.03;;
13289;SDS011;6713;50.954;5.310;2024-01-06T09:13:00;8.53;;;7.17;;
13289;SDS011;6713;50.954;5.310;2024-01-06T09:15:27;8.53;;;6.50;;
13289;SDS011;6713;50.954;5.310;2024-01-06T09:17:53;9.73;;;7.33;;
13289;SDS011;6713;50.954;5.310;2024-01-06T09:20:20;8.37;;;6.43;;
13289;SDS011;6713;50.954;5.310;2024-01-06T09:22:48;7.70;;;6.40;;
13289;SDS011;6713;50.954;5.310;2024-01-06T09:25:14;11.63;;;7.50;;
13289;SDS011;6713;50.954;5.310;2024-01-06T09:27:40;9.27;;;7.40;;
13289;SDS011;6713;50.954;5.310;2024-01-06T09:30:09;8.50;;;7.50;;
13289;SDS011;6713;50.954;5.310;2024-01-06T09:32:36;11.43;;;7.90;;
13289;SDS011;6713;50.954;5.310;2024-01-06T09:35:02;10.40;;;8.17;;
13289;SDS011;6713;50.954;5.310;2024-01-06T09:37:29;10.73;;;8.80;;
13289;SDS011;6713;50.954;5.310;2024-01-06T09:39:55;9.93;;;7.67;;
13289;SDS011;6713;50.954;5.310;2024-01-06T09:42:21;10.47;;;7.87;;
13289;SDS011;6713;50.954;5.310;2024-01-06T09:44:48;11.97;;;8.43;;
13289;SDS011;6713;50.954;5.310;2024-01-06T09:47:16;9.03;;;7.60;;
13289;SDS011;6713;50.954;5.310;2024-01-06T09:49:43;7.97;;;7.03;;
13289;SDS011;6713;50.954;5.310;2024-01-06T09:52:14;11.57;;;7.27;;
13289;SDS011;6713;50.954;5.310;2024-01-06T09:54:41;10.87;;;7.10;;
13289;SDS011;6713;50.954;5.310;2024-01-06T09:57:11;13.57;;;7.07;;
13289;SDS011;6713;50.954;5.310;2024-01-06T09:59:37;13.80;;;6.93;;
13289;SDS011;6713;50.954;5.310;2024-01-06T10:02:04;8.77;;;7.03;;
13289;SDS011;6713;50.954;5.310;2024-01-06T10:04:32;7.23;;;6.10;;
13289;SDS011;6713;50.954;5.310;2024-01-06T10:06:58;10.43;;;6.17;;
13289;SDS011;6713;50.954;5.310;2024-01-06T10:09:28;7.97;;;5.87;;
13289;SDS011;6713;50.954;5.310;2024-01-06T10:11:54;6.73;;;6.03;;
13289;SDS011;6713;50.954;5.310;2024-01-06T10:14:21;9.53;;;6.37;;
13289;SDS011;6713;50.954;5.310;2024-01-06T10:16:47;7.63;;;6.00;;
13289;SDS011;6713;50.954;5.310;2024-01-06T10:19:14;10.40;;;6.57;;
13289;SDS011;6713;50.954;5.310;2024-01-06T10:21:42;6.60;;;6.00;;
13289;SDS011;6713;50.954;5.310;2024-01-06T10:24:09;6.93;;;5.90;;
13289;SDS011;6713;50.954;5.310;2024-01-06T10:26:35;6.33;;;5.40;;
13289;SDS011;6713;50.954;5.310;2024-01-06T10:29:02;6.93;;;5.33;;
13289;SDS011;6713;50.954;5.310;2024-01-06T10:31:29;5.77;;;5.10;;
13289;SDS011;6713;50.954;5.310;2024-01-06T10:33:55;5.63;;;4.70;;
13289;SDS011;6713;50.954;5.310;2024-01-06T10:36:22;5.03;;;4.50;;
13289;SDS011;6713;50.954;5.310;2024-01-06T10:38:50;6.23;;;5.63;;
13289;SDS011;6713;50.954;5.310;2024-01-06T10:41:18;7.17;;;4.60;;
13289;SDS011;6713;50.954;5.310;2024-01-06T10:43:45;6.27;;;5.03;;
13289;SDS011;6713;50.954;5.310;2024-01-06T10:46:12;6.47;;;4.27;;
13289;SDS011;6713;50.954;5.310;2024-01-06T10:48:41;5.37;;;4.53;;
13289;SDS011;6713;50.954;5.310;2024-01-06T10:51:09;4.97;;;4.37;;
13289;SDS011;6713;50.954;5.310;2024-01-06T10:53:36;5.43;;;4.40;;
13289;SDS011;6713;50.954;5.310;2024-01-06T10:56:05;5.90;;;4.80;;
13289;SDS011;6713;50.954;5.310;2024-01-06T10:58:33;7.07;;;4.90;;
13289;SDS011;6713;50.954;5.310;2024-01-06T11:01:01;5.47;;;4.47;;
13289;SDS011;6713;50.954;5.310;2024-01-06T11:03:28;7.47;;;5.67;;
13289;SDS011;6713;50.954;5.310;2024-01-06T11:05:55;5.47;;;4.57;;
13289;SDS011;6713;50.954;5.310;2024-01-06T11:08:22;5.50;;;5.00;;
13289;SDS011;6713;50.954;5.310;2024-01-06T11:10:50;6.33;;;5.37;;
13289;SDS011;6713;50.954;5.310;2024-01-06T11:13:21;7.47;;;6.00;;
13289;SDS011;6713;50.954;5.310;2024-01-06T11:15:49;7.73;;;5.07;;
13289;SDS011;6713;50.954;5.310;2024-01-06T11:18:31;6.67;;;4.57;;
13289;SDS011;6713;50.954;5.310;2024-01-06T11:21:17;6.90;;;4.93;;
13289;SDS011;6713;50.954;5.310;2024-01-06T11:23:49;5.23;;;4.33;;
13289;SDS011;6713;50.954;5.310;2024-01-06T11:26:30;5.80;;;5.07;;
13289;SDS011;6713;50.954;5.310;2024-01-06T11:28:57;4.67;;;4.10;;
13289;SDS011;6713;50.954;5.310;2024-01-06T11:31:28;4.90;;;4.40;;
13289;SDS011;6713;50.954;5.310;2024-01-06T11:33:54;5.17;;;4.40;;
13289;SDS011;6713;50.954;5.310;2024-01-06T11:36:21;5.33;;;4.63;;
13289;SDS011;6713;50.954;5.310;2024-01-06T11:38:47;5.93;;;4.90;;
13289;SDS011;6713;50.954;5.310;2024-01-06T11:43:58;4.80;;;4.37;;
13289;SDS011;6713;50.954;5.310;2024-01-06T11:46:25;5.10;;;4.33;;
13289;SDS011;6713;50.954;5.310;2024-01-06T11:48:51;5.93;;;4.00;;
13289;SDS011;6713;50.954;5.310;2024-01-06T11:51:18;5.73;;;4.83;;
13289;SDS011;6713;50.954;5.310;2024-01-06T11:53:45;4.20;;;3.80;;
13289;SDS011;6713;50.954;5.310;2024-01-06T11:56:11;4.50;;;3.90;;
13289;SDS011;6713;50.954;5.310;2024-01-06T11:58:39;6.13;;;2.93;;
13289;SDS011;6713;50.954;5.310;2024-01-06T12:01:06;4.73;;;4.10;;
13289;SDS011;6713;50.954;5.310;2024-01-06T12:03:33;3.70;;;3.40;;
13289;SDS011;6713;50.954;5.310;2024-01-06T12:05:59;3.67;;;3.37;;
13289;SDS011;6713;50.954;5.310;2024-01-06T12:08:26;4.07;;;3.40;;
13289;SDS011;6713;50.954;5.310;2024-01-06T12:11:01;4.13;;;3.37;;
13289;SDS011;6713;50.954;5.310;2024-01-06T12:13:27;4.93;;;3.47;;
13289;SDS011;6713;50.954;5.310;2024-01-06T12:15:54;4.13;;;3.43;;
13289;SDS011;6713;50.954;5.310;2024-01-06T12:18:22;4.27;;;3.90;;
13289;SDS011;6713;50.954;5.310;2024-01-06T12:20:49;4.87;;;4.17;;
13289;SDS011;6713;50.954;5.310;2024-01-06T12:23:23;4.97;;;4.03;;
13289;SDS011;6713;50.954;5.310;2024-01-06T12:25:49;4.43;;;3.80;;
13289;SDS011;6713;50.954;5.310;2024-01-06T12:28:16;4.47;;;3.70;;
13289;SDS011;6713;50.954;5.310;2024-01-06T12:30:42;5.77;;;4.80;;
13289;SDS011;6713;50.954;5.310;2024-01-06T12:33:10;4.67;;;4.23;;
13289;SDS011;6713;50.954;5.310;2024-01-06T12:35:38;4.57;;;4.17;;
13289;SDS011;6713;50.954;5.310;2024-01-06T12:38:05;4.40;;;4.00;;
13289;SDS011;6713;50.954;5.310;2024-01-06T12:40:32;5.20;;;4.10;;
13289;SDS011;6713;50.954;5.310;2024-01-06T12:42:58;4.53;;;4.00;;
13289;SDS011;6713;50.954;5.310;2024-01-06T12:45:24;4.47;;;3.70;;
13289;SDS011;6713;50.954;5.310;2024-01-06T12:47:52;6.03;;;3.70;;
13289;SDS011;6713;50.954;5.310;2024-01-06T12:50:19;3.53;;;3.20;;
13289;SDS011;6713;50.954;5.310;2024-01-06T12:52:47;4.17;;;3.80;;
13289;SDS011;6713;50.954;5.310;2024-01-06T12:55:14;4.00;;;3.60;;
13289;SDS011;6713;50.954;5.310;2024-01-06T12:57:40;3.93;;;3.53;;
13289;SDS011;6713;50.954;5.310;2024-01-06T13:00:08;4.53;;;4.00;;
13289;SDS011;6713;50.954;5.310;2024-01-06T13:02:37;5.53;;;3.73;;
13289;SDS011;6713;50.954;5.310;2024-01-06T13:05:03;3.77;;;3.47;;
13289;SDS011;6713;50.954;5.310;2024-01-06T13:07:30;3.70;;;3.40;;
13289;SDS011;6713;50.954;5.310;2024-01-06T13:09:58;3.57;;;2.87;;
13289;SDS011;6713;50.954;5.310;2024-01-06T13:12:24;3.90;;;3.00;;
13289;SDS011;6713;50.954;5.310;2024-01-06T13:14:54;3.43;;;2.47;;
13289;SDS011;6713;50.954;5.310;2024-01-06T13:17:20;5.97;;;3.10;;
13289;SDS011;6713;50.954;5.310;2024-01-06T13:19:46;3.53;;;3.23;;
13289;SDS011;6713;50.954;5.310;2024-01-06T13:22:13;3.47;;;3.03;;
13289;SDS011;6713;50.954;5.310;2024-01-06T13:24:39;3.23;;;3.03;;
13289;SDS011;6713;50.954;5.310;2024-01-06T13:27:07;3.10;;;2.87;;
13289;SDS011;6713;50.954;5.310;2024-01-06T13:29:34;3.50;;;3.20;;
13289;SDS011;6713;50.954;5.310;2024-01-06T13:32:00;3.40;;;3.00;;
13289;SDS011;6713;50.954;5.310;2024-01-06T13:34:27;3.13;;;2.93;;
13289;SDS011;6713;50.954;5.310;2024-01-06T13:36:54;3.33;;;3.03;;
13289;SDS011;6713;50.954;5.310;2024-01-06T13:39:22;3.47;;;3.17;;
13289;SDS011;6713;50.954;5.310;2024-01-06T13:41:49;3.80;;;3.30;;
13289;SDS011;6713;50.954;5.310;2024-01-06T13:44:17;3.90;;;3.60;;
13289;SDS011;6713;50.954;5.310;2024-01-06T13:46:43;4.33;;;4.03;;
13289;SDS011;6713;50.954;5.310;2024-01-06T13:49:09;3.77;;;3.47;;
13289;SDS011;6713;50.954;5.310;2024-01-06T13:51:36;3.60;;;3.30;;
13289;SDS011;6713;50.954;5.310;2024-01-06T13:54:02;3.87;;;3.47;;
13289;SDS011;6713;50.954;5.310;2024-01-06T13:56:29;4.07;;;3.60;;
13289;SDS011;6713;50.954;5.310;2024-01-06T13:58:55;3.70;;;3.40;;
13289;SDS011;6713;50.954;5.310;2024-01-06T14:01:23;3.60;;;3.30;;
13289;SDS011;6713;50.954;5.310;2024-01-06T14:03:50;5.37;;;3.70;;
13289;SDS011;6713;50.954;5.310;2024-01-06T14:06:22;4.37;;;3.50;;
13289;SDS011;6713;50.954;5.310;2024-01-06T14:08:49;4.20;;;3.80;;
13289;SDS011;6713;50.954;5.310;2024-01-06T14:11:15;5.27;;;4.77;;
13289;SDS011;6713;50.954;5.310;2024-01-06T14:13:41;5.77;;;5.27;;
13289;SDS011;6713;50.954;5.310;2024-01-06T14:16:08;9.40;;;6.40;;
13289;SDS011;6713;50.954;5.310;2024-01-06T14:18:35;7.47;;;5.50;;
13289;SDS011;6713;50.954;5.310;2024-01-06T14:21:02;5.80;;;5.27;;
13289;SDS011;6713;50.954;5.310;2024-01-06T14:23:28;7.07;;;6.37;;
13289;SDS011;6713;50.954;5.310;2024-01-06T14:25:57;4.90;;;4.50;;
13289;SDS011;6713;50.954;5.310;2024-01-06T14:28:24;5.40;;;4.90;;
13289;SDS011;6713;50.954;5.310;2024-01-06T14:30:50;5.57;;;4.17;;
13289;SDS011;6713;50.954;5.310;2024-01-06T14:33:17;6.03;;;4.57;;
13289;SDS011;6713;50.954;5.310;2024-01-06T14:35:45;4.63;;;4.17;;
13289;SDS011;6713;50.954;5.310;2024-01-06T14:38:12;4.37;;;3.90;;
13289;SDS011;6713;50.954;5.310;2024-01-06T14:40:38;4.27;;;3.87;;
13289;SDS011;6713;50.954;5.310;2024-01-06T14:43:04;8.07;;;3.87;;
13289;SDS011;6713;50.954;5.310;2024-01-06T14:45:32;4.10;;;3.50;;
13289;SDS011;6713;50.954;5.310;2024-01-06T14:47:58;4.07;;;3.67;;
13289;SDS011;6713;50.954;5.310;2024-01-06T14:50:25;4.50;;;3.23;;
13289;SDS011;6713;50.954;5.310;2024-01-06T14:52:52;4.00;;;3.63;;
13289;SDS011;6713;50.954;5.310;2024-01-06T14:55:19;4.27;;;3.87;;
13289;SDS011;6713;50.954;5.310;2024-01-06T14:57:45;3.73;;;3.43;;
13289;SDS011;6713;50.954;5.310;2024-01-06T15:00:12;3.87;;;3.50;;
13289;SDS011;6713;50.954;5.310;2024-01-06T15:02:38;3.70;;;3.37;;